Time;durP1;ratioP1;P1;durP2;ratioP2;P2;SDS_P1;SDS_P2;PMS_P1;PMS_P2;Temp;Humidity;BMP_temperature;BMP_pressure;BME280_temperature;BME280_humidity;BME280_pressure;Samples;Min_cycle;Max_cycle;Signal;HPM_P1;HPM_P2
2022/08/25 00:40:36;;;;;;;10.15;5.10;;;;;;;17.80;100.00;101091.84;5177333;28;20045;-77
2022/08/25 00:43:08;;;;;;;9.40;5.30;;;;;;;17.81;100.00;101091.72;5187332;28;20036;-77
2022/08/25 00:48:11;;;;;;;8.65;4.38;;;;;;;18.15;100.00;101077.41;5176796;28;19956;-72
2022/08/25 00:50:41;;;;;;;7.47;4.70;;;;;;;17.97;100.00;101083.78;5182147;28;20034;-73
2022/08/25 00:53:12;;;;;;;7.22;4.97;;;;;;;17.98;100.00;101086.31;5182125;28;20030;-73
2022/08/25 00:55:42;;;;;;;7.22;5.05;;;;;;;17.98;100.00;101078.38;5181275;28;20514;-72
2022/08/25 00:58:20;;;;;;;9.25;5.18;;;;;;;18.01;100.00;101086.13;5171429;28;20026;-73
2022/08/25 01:00:54;;;;;;;10.77;5.15;;;;;;;18.01;100.00;101085.31;5194629;28;20044;-72
2022/08/25 01:03:27;;;;;;;8.18;4.97;;;;;;;18.10;100.00;101079.47;5186844;28;20025;-73
2022/08/25 01:05:59;;;;;;;10.38;4.43;;;;;;;18.27;100.00;101082.88;5192949;28;20430;-73
2022/08/25 01:08:31;;;;;;;9.93;5.05;;;;;;;18.09;100.00;101088.34;5188357;28;20026;-72
2022/08/25 01:11:04;;;;;;;9.05;4.68;;;;;;;17.94;100.00;101076.00;5191811;28;20060;-73
2022/08/25 01:13:43;;;;;;;12.82;5.32;;;;;;;17.89;100.00;101080.72;5191046;28;20480;-72
2022/08/25 01:16:15;;;;;;;7.05;5.22;;;;;;;17.87;100.00;101082.59;5189902;28;20030;-72
2022/08/25 01:18:52;;;;;;;8.65;4.55;;;;;;;18.16;100.00;101079.97;5183146;28;20025;-73
2022/08/25 01:21:24;;;;;;;11.27;5.57;;;;;;;17.85;100.00;101084.47;5182343;28;20218;-72
2022/08/25 01:23:57;;;;;;;9.48;5.15;;;;;;;18.04;100.00;101079.81;5192618;28;20044;-73
2022/08/25 01:26:31;;;;;;;7.45;5.20;;;;;;;17.82;100.00;101077.56;5165057;28;20025;-73
2022/08/25 01:29:21;;;;;;;9.68;5.40;;;;;;;17.82;100.00;101082.00;5186346;28;20057;-73
2022/08/25 01:31:59;;;;;;;7.78;4.90;;;;;;;17.86;100.00;101079.09;5167738;28;20068;-73
2022/08/25 01:34:32;;;;;;;10.27;5.30;;;;;;;17.74;100.00;101068.34;5191214;28;20113;-73
2022/08/25 01:37:03;;;;;;;7.57;4.75;;;;;;;17.78;100.00;101073.41;5189418;28;20026;-73
2022/08/25 01:39:35;;;;;;;9.75;5.43;;;;;;;17.37;100.00;101074.88;5190806;28;20022;-73
2022/08/25 01:42:05;;;;;;;10.52;6.00;;;;;;;17.22;100.00;101085.38;5190647;28;20293;-73
2022/08/25 01:44:44;;;;;;;10.13;5.28;;;;;;;17.38;100.00;101081.00;5173430;28;20025;-73
2022/08/25 01:47:15;;;;;;;9.63;5.95;;;;;;;17.41;100.00;101078.19;5185879;28;20095;-73
2022/08/25 01:49:46;;;;;;;9.77;5.78;;;;;;;17.29;100.00;101073.56;5183469;28;20041;-72
2022/08/25 01:52:26;;;;;;;11.38;5.35;;;;;;;17.60;100.00;101073.56;5189302;28;20491;-72
2022/08/25 01:54:56;;;;;;;8.38;5.45;;;;;;;17.55;100.00;101086.19;5183858;28;20029;-72
2022/08/25 01:57:29;;;;;;;9.27;5.60;;;;;;;17.42;100.00;101075.47;5183400;28;20501;-73
2022/08/25 02:00:00;;;;;;;13.18;5.90;;;;;;;17.46;100.00;101071.72;5191187;28;20040;-73
2022/08/25 02:02:30;;;;;;;10.45;5.82;;;;;;;17.51;100.00;101082.03;5186497;28;20306;-73
2022/08/25 02:05:01;;;;;;;9.13;6.30;;;;;;;17.36;100.00;101077.59;5186583;28;20033;-73
2022/08/25 02:07:31;;;;;;;8.00;5.63;;;;;;;17.48;100.00;101072.47;5187790;28;20112;-73
2022/08/25 02:10:03;;;;;;;8.10;5.07;;;;;;;17.46;100.00;101066.41;5190642;28;20061;-73
2022/08/25 02:12:35;;;;;;;9.75;5.30;;;;;;;17.43;100.00;101071.88;5189830;28;20427;-73
2022/08/25 02:15:07;;;;;;;9.13;5.80;;;;;;;17.35;100.00;101062.69;5190408;28;20039;-73
2022/08/25 02:17:38;;;;;;;7.55;5.68;;;;;;;17.17;100.00;101066.31;5181886;28;20026;-73
2022/08/25 02:20:08;;;;;;;10.40;5.97;;;;;;;17.20;100.00;101068.75;5185756;28;20057;-73
2022/08/25 02:22:39;;;;;;;8.02;5.47;;;;;;;17.24;100.00;101067.66;5188021;28;20032;-73
2022/08/25 02:25:10;;;;;;;8.43;5.70;;;;;;;17.55;100.00;101071.22;5190327;28;20049;-73
2022/08/25 02:27:40;;;;;;;10.27;6.07;;;;;;;17.57;100.00;101074.63;5187408;28;20035;-73
2022/08/25 02:30:14;;;;;;;8.38;5.57;;;;;;;17.50;100.00;101061.81;5190657;28;20033;-73
2022/08/25 02:32:45;;;;;;;9.55;5.80;;;;;;;17.26;100.00;101057.84;5189206;28;20068;-73
2022/08/25 02:35:16;;;;;;;11.30;5.95;;;;;;;17.28;100.00;101062.13;5191158;28;20534;-73
2022/08/25 02:37:46;;;;;;;8.07;5.13;;;;;;;17.36;100.00;101049.38;5169470;28;20514;-73
2022/08/25 02:40:17;;;;;;;10.52;5.82;;;;;;;17.23;100.00;101058.03;5190166;28;20506;-73
2022/08/25 02:42:50;;;;;;;8.82;5.85;;;;;;;17.18;100.00;101055.63;5188173;28;20040;-73
2022/08/25 02:45:20;;;;;;;8.57;5.97;;;;;;;17.32;100.00;101047.81;5191725;28;20045;-72
2022/08/25 02:47:51;;;;;;;12.70;6.57;;;;;;;17.19;100.00;101053.84;5180359;28;20483;-73
2022/08/25 02:50:21;;;;;;;10.43;6.18;;;;;;;17.21;100.00;101054.63;5177696;28;20029;-73
2022/08/25 02:52:52;;;;;;;8.00;5.78;;;;;;;17.16;100.00;101051.38;5187696;28;20033;-73
2022/08/25 02:55:22;;;;;;;9.27;6.05;;;;;;;16.85;100.00;101061.91;5187984;28;20407;-73
2022/08/25 02:57:52;;;;;;;9.07;6.22;;;;;;;16.81;100.00;101057.72;5189744;28;20388;-73
2022/08/25 03:00:23;;;;;;;8.30;5.85;;;;;;;17.15;100.00;101055.81;5187569;28;20430;-72
2022/08/25 03:02:53;;;;;;;9.63;5.75;;;;;;;17.17;100.00;101053.09;5191096;28;20055;-72
2022/08/25 03:05:23;;;;;;;10.25;6.80;;;;;;;16.85;100.00;101052.22;5187433;28;20028;-73
2022/08/25 03:07:55;;;;;;;12.98;6.70;;;;;;;16.81;100.00;101049.81;5189455;28;20036;-73
2022/08/25 03:10:25;;;;;;;10.57;6.30;;;;;;;16.80;100.00;101048.09;5187434;28;20030;-73
2022/08/25 03:12:56;;;;;;;10.07;5.80;;;;;;;16.77;100.00;101056.19;5190918;28;20100;-73
2022/08/25 03:15:27;;;;;;;13.13;5.60;;;;;;;16.69;100.00;101045.16;5187979;28;20033;-73
2022/08/25 03:17:58;;;;;;;8.40;5.80;;;;;;;16.78;100.00;101055.25;5180541;28;20072;-73
2022/08/25 03:20:28;;;;;;;8.38;5.78;;;;;;;16.81;100.00;101044.53;5166579;28;20024;-73
2022/08/25 03:22:58;;;;;;;11.10;5.90;;;;;;;16.88;100.00;101045.88;5188156;28;20629;-72
2022/08/25 03:28:18;;;;;;;11.55;6.32;;;;;;;16.54;100.00;101045.97;5189419;28;20198;-73
2022/08/25 03:30:48;;;;;;;9.40;5.78;;;;;;;16.69;100.00;101039.88;5187623;28;20117;-73
2022/08/25 03:33:19;;;;;;;12.52;5.90;;;;;;;16.63;100.00;101045.50;5190841;28;20491;-73
2022/08/25 03:35:50;;;;;;;9.70;6.22;;;;;;;16.62;100.00;101048.22;5186867;28;20021;-73
2022/08/25 03:38:22;;;;;;;11.32;6.03;;;;;;;16.77;100.00;101037.72;5179950;28;20029;-73
2022/08/25 03:40:53;;;;;;;12.65;5.97;;;;;;;16.73;100.00;101036.13;5167534;28;20112;-73
2022/08/25 03:43:23;;;;;;;13.30;6.20;;;;;;;16.76;100.00;101032.50;5190931;28;20151;-73
2022/08/25 03:45:53;;;;;;;8.10;6.03;;;;;;;16.70;100.00;101031.03;5186949;28;20450;-73
2022/08/25 03:48:24;;;;;;;11.27;6.38;;;;;;;16.72;100.00;101038.88;5178511;28;20022;-73
2022/08/25 03:50:54;;;;;;;11.38;6.78;;;;;;;16.89;100.00;101031.75;5186860;28;20037;-73
2022/08/25 03:53:24;;;;;;;9.05;6.20;;;;;;;16.88;100.00;101040.59;5187066;28;20393;-73
2022/08/25 03:55:55;;;;;;;9.23;5.82;;;;;;;17.01;100.00;101044.28;5190331;28;20033;-73
2022/08/25 03:58:26;;;;;;;8.48;5.72;;;;;;;16.80;100.00;101042.81;5189803;28;20492;-73
2022/08/25 04:00:59;;;;;;;11.70;5.63;;;;;;;16.69;100.00;101045.16;5175728;28;20053;-72
2022/08/25 04:03:29;;;;;;;10.18;6.03;;;;;;;16.89;100.00;101052.88;5191678;28;20373;-73
2022/08/25 04:06:01;;;;;;;8.05;5.70;;;;;;;16.71;100.00;101053.84;5193694;28;20036;-73
2022/08/25 04:08:32;;;;;;;11.80;6.00;;;;;;;16.59;100.00;101064.22;5180233;28;20088;-72
2022/08/25 04:11:14;;;;;;;12.35;5.95;;;;;;;16.84;100.00;101060.19;5186527;28;20029;-73
2022/08/25 04:13:45;;;;;;;9.60;6.00;;;;;;;16.79;100.00;101056.94;5186001;28;20277;-73
2022/08/25 04:16:20;;;;;;;8.95;6.28;;;;;;;16.81;100.00;101058.56;5185845;28;20379;-73
2022/08/25 04:18:52;;;;;;;8.45;5.93;;;;;;;16.68;100.00;101063.72;5184759;28;20029;-73
2022/08/25 04:21:24;;;;;;;11.90;6.72;;;;;;;16.56;100.00;101065.22;5171132;28;20178;-73
2022/08/25 04:23:55;;;;;;;9.07;5.93;;;;;;;16.62;100.00;101066.69;5194123;28;20556;-73
2022/08/25 04:26:29;;;;;;;10.70;6.15;;;;;;;16.48;100.00;101075.31;5190035;28;20285;-73
2022/08/25 04:29:02;;;;;;;10.85;6.18;;;;;;;16.74;100.00;101069.53;5192282;28;20025;-72
2022/08/25 04:31:32;;;;;;;11.93;6.63;;;;;;;16.62;100.00;101075.47;5191795;28;20022;-73
2022/08/25 04:34:04;;;;;;;12.75;6.75;;;;;;;16.43;100.00;101073.84;5192139;28;20029;-72
2022/08/25 04:36:35;;;;;;;10.65;6.68;;;;;;;16.46;100.00;101077.19;5191021;28;20101;-73
2022/08/25 04:39:06;;;;;;;11.88;6.22;;;;;;;16.57;100.00;101071.34;5188520;28;20169;-73
2022/08/25 04:41:37;;;;;;;10.82;5.93;;;;;;;16.66;100.00;101069.09;5187699;28;20042;-73
2022/08/25 04:44:07;;;;;;;11.02;6.35;;;;;;;16.93;100.00;101063.19;5192707;28;20499;-73
2022/08/25 04:46:37;;;;;;;10.63;6.32;;;;;;;17.04;100.00;101067.91;5188283;28;20109;-72
2022/08/25 04:49:08;;;;;;;12.60;7.20;;;;;;;16.89;100.00;101060.78;5180849;28;20033;-73
2022/08/25 04:51:40;;;;;;;10.75;6.47;;;;;;;16.74;100.00;101051.03;5190494;28;20100;-72
2022/08/25 04:54:15;;;;;;;13.90;6.85;;;;;;;16.88;100.00;101057.31;5185233;28;20034;-73
2022/08/25 04:56:47;;;;;;;13.48;7.57;;;;;;;16.79;100.00;101051.69;5191867;28;20044;-73
2022/08/25 04:59:18;;;;;;;14.35;8.50;;;;;;;16.61;100.00;101044.72;5190190;28;20041;-73
2022/08/25 05:01:49;;;;;;;11.95;7.35;;;;;;;16.57;100.00;101045.81;5191817;28;20399;-73
2022/08/25 05:04:21;;;;;;;11.63;7.63;;;;;;;16.96;100.00;101038.41;5190439;28;20045;-73
2022/08/25 05:06:52;;;;;;;11.80;7.50;;;;;;;17.32;100.00;101037.22;5192031;28;20038;-73
2022/08/25 05:09:23;;;;;;;13.65;7.22;;;;;;;17.14;100.00;101038.25;5188805;28;20029;-73
2022/08/25 05:11:53;;;;;;;12.20;6.78;;;;;;;17.27;100.00;101041.94;5193566;28;20163;-73
2022/08/25 05:14:24;;;;;;;11.70;7.13;;;;;;;17.49;100.00;101038.97;5190409;28;20025;-73
2022/08/25 05:16:54;;;;;;;10.77;7.50;;;;;;;17.61;100.00;101040.91;5185372;28;20720;-73
2022/08/25 05:19:25;;;;;;;12.52;7.53;;;;;;;17.75;100.00;101048.91;5186752;28;20045;-74
2022/08/25 05:21:56;;;;;;;12.32;6.57;;;;;;;17.88;100.00;101042.84;5189153;28;20034;-73
2022/08/25 05:24:26;;;;;;;9.43;6.50;;;;;;;18.93;100.00;101039.91;5192054;28;20021;-73
2022/08/25 05:26:57;;;;;;;8.85;6.07;;;;;;;20.63;100.00;101044.50;5191475;28;20088;-73
2022/08/25 05:29:27;;;;;;;7.85;5.40;;;;;;;21.36;92.91;101042.72;5185030;28;20033;-73
2022/08/25 05:31:57;;;;;;;6.90;5.20;;;;;;;21.18;90.69;101037.84;5189388;28;20525;-73
2022/08/25 05:34:28;;;;;;;9.00;5.35;;;;;;;22.59;85.64;101035.16;5190644;28;20609;-73
2022/08/25 05:37:02;;;;;;;8.15;5.60;;;;;;;22.23;85.09;101040.63;5165379;28;20424;-72
2022/08/25 05:39:32;;;;;;;14.93;5.60;;;;;;;22.11;88.16;101044.22;5190123;28;20513;-71
2022/08/25 05:42:03;;;;;;;10.18;6.03;;;;;;;23.22;84.78;101034.47;5188996;28;20030;-69
2022/08/25 05:44:33;;;;;;;9.13;5.38;;;;;;;23.53;84.38;101028.34;5186051;28;20498;-69
2022/08/25 05:47:04;;;;;;;15.13;6.00;;;;;;;23.17;83.46;101036.66;5184103;28;20124;-71
2022/08/25 05:49:34;;;;;;;8.60;5.55;;;;;;;23.61;82.82;101027.72;5181318;28;20057;-70
2022/08/25 05:52:04;;;;;;;10.88;6.20;;;;;;;22.46;86.15;101029.09;5188898;28;20558;-70
2022/08/25 05:54:35;;;;;;;9.52;6.90;;;;;;;21.71;92.28;101032.19;5174018;28;20542;-70
2022/08/25 05:57:06;;;;;;;13.07;7.40;;;;;;;20.79;100.00;101043.31;5190073;28;20094;-70
2022/08/25 05:59:36;;;;;;;14.05;8.73;;;;;;;20.57;100.00;101042.25;5190200;28;20029;-70
2022/08/25 06:04:57;;;;;;;14.60;8.75;;;;;;;20.65;100.00;101037.28;5185927;28;20044;-70
2022/08/25 06:07:28;;;;;;;12.65;8.32;;;;;;;20.80;100.00;101039.69;5190295;28;20075;-73
2022/08/25 06:09:58;;;;;;;16.33;9.85;;;;;;;20.59;100.00;101038.53;5189597;28;20072;-73
2022/08/25 06:12:31;;;;;;;13.88;10.05;;;;;;;20.48;100.00;101030.47;5191198;28;20029;-72
2022/08/25 06:15:02;;;;;;;12.65;8.50;;;;;;;20.70;100.00;101036.00;5190010;28;20468;-73
2022/08/25 06:17:34;;;;;;;14.13;9.88;;;;;;;20.82;100.00;101033.34;5183185;28;20032;-72
2022/08/25 06:20:06;;;;;;;13.95;8.73;;;;;;;21.22;100.00;101018.09;5180580;28;20616;-70
2022/08/25 06:22:36;;;;;;;14.18;9.40;;;;;;;21.37;100.00;101022.31;5185341;28;20033;-74
2022/08/25 06:25:08;;;;;;;12.80;8.60;;;;;;;21.57;100.00;101021.69;5190385;28;20044;-73
2022/08/25 06:27:39;;;;;;;13.50;8.90;;;;;;;21.79;100.00;101014.69;5188215;28;20025;-72
2022/08/25 06:30:19;;;;;;;13.18;9.80;;;;;;;21.82;100.00;101018.91;5190235;28;20088;-72
2022/08/25 06:32:49;;;;;;;14.82;10.05;;;;;;;22.13;100.00;101029.84;5184871;28;20518;-72
2022/08/25 06:35:20;;;;;;;15.13;9.52;;;;;;;22.49;100.00;101026.19;5187664;28;20052;-73
2022/08/25 06:37:50;;;;;;;17.52;9.32;;;;;;;23.02;98.96;101027.19;5184497;28;20113;-70
2022/08/25 06:40:21;;;;;;;19.58;8.38;;;;;;;25.03;89.85;101016.25;5187295;28;20036;-71
2022/08/25 06:42:52;;;;;;;13.00;7.55;;;;;;;26.49;80.57;101010.78;5188244;28;20038;-71
2022/08/25 06:45:22;;;;;;;10.20;7.35;;;;;;;27.53;77.34;101015.69;5192009;28;20048;-71
2022/08/25 06:47:53;;;;;;;14.13;7.70;;;;;;;27.64;77.34;101028.91;5180554;28;20541;-72
2022/08/25 06:50:23;;;;;;;14.88;6.68;;;;;;;29.50;68.28;101021.03;5183276;28;20025;-72
2022/08/25 06:52:54;;;;;;;14.85;6.75;;;;;;;29.44;71.82;101021.66;5190523;28;20734;-72
2022/08/25 06:55:24;;;;;;;10.30;6.03;;;;;;;30.29;68.57;101024.84;5188092;28;20308;-72
2022/08/25 06:57:54;;;;;;;10.60;6.23;;;;;;;29.12;70.67;101029.63;5189951;28;20287;-72
2022/08/25 07:00:25;;;;;;;9.70;6.03;;;;;;;29.00;74.11;101038.97;5186918;28;20276;-72
2022/08/25 07:02:55;;;;;;;13.97;6.43;;;;;;;30.26;68.92;101020.63;5190948;28;20068;-72
2022/08/25 07:05:27;;;;;;;13.52;7.07;;;;;;;29.25;72.68;101022.75;5188182;28;20276;-72
2022/08/25 07:07:57;;;;;;;10.45;5.53;;;;;;;29.74;69.52;101013.00;5184724;28;20497;-72
2022/08/25 07:10:27;;;;;;;13.50;6.65;;;;;;;30.16;69.52;100998.41;5184004;28;20113;-72
2022/08/25 07:12:58;;;;;;;10.13;5.57;;;;;;;32.35;64.06;101000.63;5190481;28;20037;-72
2022/08/25 07:15:28;;;;;;;10.67;5.73;;;;;;;30.19;69.87;101002.59;5188390;28;20276;-72
2022/08/25 07:17:58;;;;;;;12.25;5.32;;;;;;;31.49;65.87;100993.78;5181041;28;20762;-72
2022/08/25 07:20:30;;;;;;;12.97;5.40;;;;;;;33.32;62.17;100991.22;5184369;28;20494;-72
2022/08/25 07:23:01;;;;;;;9.10;4.78;;;;;;;32.16;65.80;101003.81;5187831;28;20303;-72
2022/08/25 07:25:33;;;;;;;8.05;4.72;;;;;;;33.93;60.19;100987.97;5189537;28;20427;-72
2022/08/25 07:28:03;;;;;;;11.68;5.15;;;;;;;33.06;62.76;100992.75;5178157;28;20176;-72
2022/08/25 07:30:34;;;;;;;10.23;4.63;;;;;;;33.40;61.05;100991.13;5183732;28;20104;-72
2022/08/25 07:33:04;;;;;;;7.00;4.50;;;;;;;30.81;68.21;100989.19;5188531;28;20029;-72
2022/08/25 07:35:36;;;;;;;10.50;4.97;;;;;;;30.69;68.02;100997.81;5185582;28;20105;-71
2022/08/25 07:38:07;;;;;;;9.10;4.40;;;;;;;32.74;63.42;100995.00;5183650;28;20633;-72
2022/08/25 07:40:38;;;;;;;7.38;4.38;;;;;;;32.56;64.62;100989.91;5189423;28;20034;-71
2022/08/25 07:43:09;;;;;;;9.75;4.70;;;;;;;33.41;62.17;100981.09;5188192;28;20037;-71
2022/08/25 07:45:39;;;;;;;11.50;5.03;;;;;;;32.64;62.79;100989.84;5188113;28;20395;-72
2022/08/25 07:48:10;;;;;;;11.90;4.93;;;;;;;33.28;61.34;100978.25;5178489;28;20021;-71
2022/08/25 07:50:46;;;;;;;10.80;4.50;;;;;;;32.10;64.30;100990.16;5180101;28;20032;-71
2022/08/25 07:53:17;;;;;;;7.03;4.72;;;;;;;31.10;66.73;100990.25;5188139;28;20036;-72
2022/08/25 07:55:47;;;;;;;11.68;4.70;;;;;;;32.88;63.97;100975.22;5187143;28;20026;-72
2022/08/25 07:58:17;;;;;;;11.23;4.47;;;;;;;33.61;62.79;100971.31;5188600;28;20030;-72
2022/08/25 08:00:48;;;;;;;7.20;4.50;;;;;;;34.46;59.77;100975.69;5187890;28;20537;-71
2022/08/25 08:03:19;;;;;;;10.18;5.15;;;;;;;33.31;60.92;100977.88;5190073;28;20268;-71
2022/08/25 08:05:50;;;;;;;7.07;4.10;;;;;;;34.40;59.99;100976.47;5184170;28;20030;-72
2022/08/25 08:08:20;;;;;;;14.32;6.00;;;;;;;31.84;65.13;100990.53;5179908;28;20026;-71
2022/08/25 08:10:51;;;;;;;8.27;4.93;;;;;;;30.79;70.05;100987.69;5185838;28;20033;-71
2022/08/25 08:13:22;;;;;;;8.93;4.93;;;;;;;31.69;67.31;100984.22;5186101;28;20277;-71
2022/08/25 08:15:52;;;;;;;10.40;4.95;;;;;;;30.40;69.46;100987.56;5180875;28;20030;-71
2022/08/25 08:18:23;;;;;;;10.00;5.20;;;;;;;29.64;72.04;100977.25;5180188;28;20033;-71
2022/08/25 08:20:53;;;;;;;14.70;5.20;;;;;;;29.50;72.50;100984.16;5182926;28;20034;-71
2022/08/25 08:23:26;;;;;;;9.67;5.53;;;;;;;30.87;69.04;100978.53;5173039;28;20055;-72
2022/08/25 08:25:56;;;;;;;11.57;5.40;;;;;;;30.94;69.54;100979.53;5187048;28;20288;-72
2022/08/25 08:28:27;;;;;;;11.77;5.80;;;;;;;31.99;66.49;100972.50;5188083;28;20029;-72
2022/08/25 08:30:57;;;;;;;10.95;4.85;;;;;;;31.07;69.03;100982.53;5187203;28;20033;-72
2022/08/25 08:33:28;;;;;;;12.38;5.40;;;;;;;30.69;69.46;100984.31;5189803;28;20120;-72
2022/08/25 08:36:08;;;;;;;11.95;5.97;;;;;;;29.52;71.88;100986.66;5169870;28;20518;-72
2022/08/25 08:38:41;;;;;;;12.77;5.63;;;;;;;29.74;71.68;100980.66;5187135;28;20029;-72
2022/08/25 08:44:31;;;;;;;16.05;5.78;;;;;;;28.53;75.91;100977.63;5188173;28;20665;-71
2022/08/25 08:47:35;;;;;;;14.07;5.40;;;;;;;28.03;78.17;100980.09;5183495;28;20034;-71
2022/08/25 08:50:22;;;;;;;13.23;5.70;;;;;;;27.52;80.73;100976.38;5189338;28;20040;-71
2022/08/25 08:52:55;;;;;;;14.60;5.40;;;;;;;27.25;81.95;100977.28;5186452;28;20038;-71
2022/08/25 08:55:31;;;;;;;17.27;6.18;;;;;;;26.94;82.98;100975.84;5193387;28;20693;-71
2022/08/25 08:58:07;;;;;;;13.68;6.32;;;;;;;26.91;82.01;100969.97;5190146;28;20112;-71
2022/08/25 09:00:46;;;;;;;17.45;6.60;;;;;;;26.51;84.62;100976.63;5192167;28;20171;-72
2022/08/25 09:03:34;;;;;;;10.70;6.75;;;;;;;26.46;84.97;100966.28;5193824;28;20029;-71
2022/08/25 09:06:10;;;;;;;11.65;6.00;;;;;;;26.27;86.16;100962.81;5188885;28;20474;-70
2022/08/25 09:08:43;;;;;;;16.20;6.35;;;;;;;26.52;84.26;100964.91;5190166;28;20407;-71
2022/08/25 09:11:44;;;;;;;23.55;7.22;;;;;;;25.91;86.17;100963.56;5192848;28;20491;-71
2022/08/25 09:14:29;;;;;;;16.08;6.57;;;;;;;25.79;86.79;100961.97;5191474;28;20214;-71
2022/08/25 09:17:38;;;;;;;11.75;6.15;;;;;;;26.18;85.63;100961.84;5182081;28;20041;-71
2022/08/25 09:20:33;;;;;;;14.35;6.60;;;;;;;26.20;85.66;100956.34;5182115;28;20034;-71
2022/08/25 09:23:09;;;;;;;12.88;5.55;;;;;;;26.96;82.45;100948.88;5177766;28;20113;-73
2022/08/25 09:25:48;;;;;;;13.93;5.90;;;;;;;27.19;81.05;100952.88;5191160;28;20030;-73
2022/08/25 09:28:29;;;;;;;13.35;5.97;;;;;;;27.36;80.11;100955.59;5187272;28;20022;-73
2022/08/25 09:31:00;;;;;;;12.27;5.80;;;;;;;27.19;80.32;100953.72;5186628;28;20559;-71
2022/08/25 09:33:33;;;;;;;15.48;6.28;;;;;;;26.21;83.61;100948.13;5186533;28;20116;-71
2022/08/25 09:36:04;;;;;;;13.80;6.03;;;;;;;26.14;84.40;100948.88;5188367;28;20025;-71
2022/08/25 09:38:35;;;;;;;15.18;6.50;;;;;;;26.28;84.22;100959.13;5185567;28;20030;-71
2022/08/25 09:41:06;;;;;;;13.40;5.55;;;;;;;25.64;85.61;100952.72;5184879;28;20028;-71
2022/08/25 09:43:40;;;;;;;20.42;6.45;;;;;;;25.87;85.28;100956.81;5190319;28;20514;-71
2022/08/25 09:46:22;;;;;;;19.65;6.38;;;;;;;26.02;84.16;100944.66;5189079;28;20052;-70
2022/08/25 09:48:54;;;;;;;14.13;5.43;;;;;;;25.96;84.47;100953.25;5177019;28;20060;-71
2022/08/25 09:51:30;;;;;;;18.50;5.90;;;;;;;25.81;84.61;100944.78;5188808;28;20487;-73
2022/08/25 09:54:19;;;;;;;12.27;5.50;;;;;;;25.78;85.12;100947.75;5184596;28;20566;-72
2022/08/25 09:57:00;;;;;;;16.60;5.72;;;;;;;25.88;84.75;100948.66;5184891;28;20037;-73
2022/08/25 09:59:34;;;;;;;14.88;5.85;;;;;;;26.22;82.99;100938.28;5185159;28;20037;-73
2022/08/25 10:02:23;;;;;;;18.52;5.93;;;;;;;26.13;83.57;100931.09;5189862;28;20033;-73
2022/08/25 10:04:54;;;;;;;12.23;5.07;;;;;;;26.34;82.70;100935.28;5184007;28;20029;-71
2022/08/25 10:07:33;;;;;;;12.65;5.90;;;;;;;26.60;81.82;100930.13;5178071;28;20552;-71
2022/08/25 10:10:17;;;;;;;14.18;5.57;;;;;;;26.52;81.63;100922.00;5187911;28;20041;-71
2022/08/25 10:12:47;;;;;;;13.77;5.18;;;;;;;26.43;82.85;100931.72;5189447;28;20060;-71
2022/08/25 10:15:22;;;;;;;8.07;4.60;;;;;;;26.92;81.17;100921.50;5180114;28;20053;-71
2022/08/25 10:17:53;;;;;;;17.83;4.72;;;;;;;27.43;78.42;100918.22;5160711;28;20029;-71
2022/08/25 10:20:26;;;;;;;9.68;4.65;;;;;;;27.53;77.68;100914.47;5163427;28;20038;-71
2022/08/25 10:23:10;;;;;;;10.60;4.72;;;;;;;27.25;77.59;100917.38;5182115;28;20033;-71
2022/08/25 10:25:50;;;;;;;11.55;5.10;;;;;;;27.27;78.15;100918.91;5180251;28;20037;-71
2022/08/25 10:28:34;;;;;;;13.95;4.85;;;;;;;27.11;77.55;100915.22;5189923;28;20017;-71
2022/08/25 10:31:13;;;;;;;15.05;4.78;;;;;;;27.36;77.53;100912.63;5187162;28;20041;-71
2022/08/25 10:34:02;;;;;;;16.50;4.97;;;;;;;27.66;76.51;100901.50;5188411;28;20396;-71
2022/08/25 10:36:58;;;;;;;8.55;4.55;;;;;;;27.76;75.83;100896.88;5185399;28;20029;-71
2022/08/25 10:39:36;;;;;;;9.93;5.28;;;;;;;27.24;76.12;100889.66;5180491;28;20148;-71
2022/08/25 10:42:25;;;;;;;14.70;4.68;;;;;;;27.44;76.50;100888.50;5189412;28;20423;-71
2022/08/25 10:45:43;;;;;;;13.85;5.03;;;;;;;27.41;76.74;100888.81;5184483;28;20048;-71
2022/08/25 10:48:16;;;;;;;12.02;4.80;;;;;;;27.43;76.64;100886.00;5177896;28;20045;-70
2022/08/25 10:50:52;;;;;;;11.55;5.20;;;;;;;28.14;74.01;100866.91;5168896;28;20025;-71
2022/08/25 10:53:44;;;;;;;11.95;4.95;;;;;;;27.86;75.90;100868.09;5184111;28;20061;-71
2022/08/25 10:56:23;;;;;;;10.60;5.32;;;;;;;28.28;74.41;100862.81;5187046;28;20018;-70
2022/08/25 10:59:25;;;;;;;12.23;4.70;;;;;;;28.55;73.24;100860.78;5182172;28;20113;-71
2022/08/25 11:02:31;;;;;;;10.55;4.68;;;;;;;28.54;72.46;100853.72;5183869;28;20034;-71
2022/08/25 11:05:36;;;;;;;10.20;4.45;;;;;;;28.53;72.17;100849.34;5161713;28;20041;-71
2022/08/25 11:08:27;;;;;;;11.15;4.43;;;;;;;28.10;74.47;100849.41;5187792;28;20115;-70
2022/08/25 11:11:20;;;;;;;10.48;4.05;;;;;;;28.19;73.68;100848.47;5189707;28;20025;-71
2022/08/25 11:13:59;;;;;;;10.73;4.43;;;;;;;27.62;74.19;100848.22;5190606;28;20029;-71
2022/08/25 11:16:38;;;;;;;10.82;4.40;;;;;;;27.77;74.32;100847.50;5183246;28;20437;-71
2022/08/25 11:19:20;;;;;;;11.07;4.35;;;;;;;27.39;76.58;100842.50;5186507;28;20037;-71
2022/08/25 11:22:00;;;;;;;10.05;4.03;;;;;;;27.26;76.88;100835.84;5185885;28;20049;-71
2022/08/25 11:24:58;;;;;;;12.75;4.63;;;;;;;27.06;77.59;100835.09;5185482;28;20037;-71
2022/08/25 11:28:10;;;;;;;13.88;4.63;;;;;;;26.94;76.65;100832.81;5182641;28;20435;-71
2022/08/25 11:30:41;;;;;;;8.23;4.20;;;;;;;27.36;76.01;100820.47;5155444;28;20536;-71
2022/08/25 11:33:13;;;;;;;16.27;4.80;;;;;;;27.76;74.61;100807.38;5188057;28;20029;-71
2022/08/25 11:35:57;;;;;;;9.07;4.10;;;;;;;28.14;73.54;100804.25;5187429;28;20471;-71
2022/08/25 11:38:42;;;;;;;7.90;4.18;;;;;;;27.87;73.87;100804.41;5175420;28;20369;-71
2022/08/25 11:41:22;;;;;;;12.10;4.70;;;;;;;27.83;75.11;100806.59;5190488;28;20029;-71
2022/08/25 11:44:26;;;;;;;10.77;4.18;;;;;;;27.83;74.26;100808.44;5182357;28;20034;-71
2022/08/25 11:46:59;;;;;;;16.65;4.38;;;;;;;27.94;74.83;100802.78;5180064;28;20416;-71
2022/08/25 11:49:56;;;;;;;10.52;4.28;;;;;;;27.69;74.52;100806.28;5179113;28;20365;-71
2022/08/25 11:52:32;;;;;;;13.52;4.82;;;;;;;27.45;75.79;100806.13;5177262;28;20025;-71
2022/08/25 11:55:15;;;;;;;13.65;4.60;;;;;;;27.38;75.82;100802.34;5185138;28;20036;-71
2022/08/25 11:57:48;;;;;;;8.65;4.43;;;;;;;27.50;74.51;100801.97;5187895;28;20021;-71
2022/08/25 12:00:19;;;;;;;15.13;4.15;;;;;;;27.34;74.38;100800.97;5186586;28;20547;-71
2022/08/25 12:02:50;;;;;;;7.55;3.97;;;;;;;27.58;75.06;100799.31;5189944;28;20113;-71
2022/08/25 12:05:20;;;;;;;10.70;4.40;;;;;;;27.84;73.74;100791.28;5187448;28;20030;-71
2022/08/25 12:08:37;;;;;;;9.88;4.50;;;;;;;27.79;73.98;100791.75;5187406;28;20037;-71
2022/08/25 12:11:09;;;;;;;11.90;4.50;;;;;;;27.72;74.49;100788.03;5187749;28;20088;-71
2022/08/25 12:13:50;;;;;;;11.65;4.05;;;;;;;27.75;74.34;100768.91;5187030;28;20404;-70
2022/08/25 12:16:40;;;;;;;13.02;4.30;;;;;;;27.63;73.19;100774.69;5184985;28;20034;-70
2022/08/25 12:19:53;;;;;;;10.43;4.50;;;;;;;27.72;72.50;100773.75;5186829;28;20058;-71
2022/08/25 12:22:25;;;;;;;8.90;4.63;;;;;;;27.49;74.27;100778.78;5088485;29;20637;-71
2022/08/25 12:25:22;;;;;;;12.52;4.50;;;;;;;27.67;73.59;100758.09;5091513;29;20405;-71
2022/08/25 12:28:05;;;;;;;10.77;4.32;;;;;;;28.02;74.20;100755.28;5143903;28;20045;-71
2022/08/25 12:30:51;;;;;;;14.98;4.38;;;;;;;28.24;73.18;100749.31;5174615;28;20116;-71
2022/08/25 12:33:46;;;;;;;15.55;4.45;;;;;;;28.08;72.84;100754.63;5194924;28;20119;-71
2022/08/25 12:36:35;;;;;;;12.65;4.63;;;;;;;28.41;72.37;100745.72;5192075;28;20029;-71
2022/08/25 12:39:19;;;;;;;10.20;4.28;;;;;;;28.55;69.30;100753.16;5189721;28;20076;-71
2022/08/25 12:41:54;;;;;;;13.07;4.57;;;;;;;28.57;70.51;100750.28;5190953;28;20033;-71
2022/08/25 12:44:39;;;;;;;11.23;4.45;;;;;;;28.41;70.41;100743.03;5186421;28;20033;-71